createdAt,value
2018-05-03T00:01:10.259Z,64.94
2018-05-03T00:03:38.543Z,65.12
2018-05-03T00:06:06.832Z,65.03
2018-05-03T00:08:35.159Z,68.37
2018-05-03T00:11:04.200Z,68.96
2018-05-03T00:13:32.475Z,68.37
2018-05-03T00:16:00.882Z,65.13
2018-05-03T00:18:29.347Z,64.50
2018-05-03T00:20:57.635Z,64.59
2018-05-03T00:23:26.251Z,67.40
2018-05-03T00:25:54.966Z,63.65
2018-05-03T00:28:24.119Z,62.49
2018-05-03T00:30:52.514Z,67.12
2018-05-03T00:33:20.847Z,62.78
2018-05-03T00:35:49.245Z,62.47
2018-05-03T00:38:17.566Z,66.09
2018-05-03T00:40:46.161Z,64.18
2018-05-03T00:43:14.494Z,67.50
2018-05-03T00:45:42.854Z,70.13
2018-05-03T00:48:11.555Z,71.03
2018-05-03T00:50:39.843Z,72.53
2018-05-03T00:53:08.858Z,72.37
2018-05-03T00:55:37.134Z,71.53
2018-05-03T00:58:05.742Z,74.04
2018-05-03T01:00:34.221Z,75.78
2018-05-03T01:03:03.295Z,76.78
2018-05-03T01:05:32.426Z,77.79
2018-05-03T01:08:00.766Z,79.35
2018-05-03T01:10:29.267Z,77.88
2018-05-03T01:12:57.559Z,77.16
2018-05-03T01:15:25.874Z,78.23
2018-05-03T01:17:54.178Z,77.71
2018-05-03T01:20:23.147Z,78.65
2018-05-03T01:22:51.871Z,79.85
2018-05-03T01:25:20.146Z,79.89
2018-05-03T01:27:48.481Z,79.46
2018-05-03T01:30:16.775Z,81.15
2018-05-03T01:32:45.063Z,82.52
2018-05-03T01:48:52.902Z,80.57
2018-05-03T01:51:21.186Z,81.43
2018-05-03T01:53:49.479Z,81.76
2018-05-03T01:56:17.823Z,81.44
2018-05-03T01:58:46.105Z,80.61
2018-05-03T02:01:14.400Z,80.02
2018-05-03T02:03:42.730Z,79.36
2018-05-03T02:06:11.011Z,76.58
2018-05-03T02:08:39.299Z,76.43
2018-05-03T02:11:07.614Z,75.65
2018-05-03T02:13:35.910Z,75.65
2018-05-03T02:16:04.222Z,75.61
2018-05-03T02:18:32.555Z,74.60
2018-05-03T02:21:01.230Z,72.93
2018-05-03T02:23:29.574Z,73.42
2018-05-03T02:25:57.895Z,71.14
2018-05-03T02:28:26.191Z,69.46
2018-05-03T02:30:54.477Z,71.69
2018-05-03T02:33:22.816Z,70.99
2018-05-03T02:35:51.028Z,70.77
2018-05-03T02:38:19.404Z,70.53
2018-05-03T02:40:48.495Z,69.24
2018-05-03T02:43:16.787Z,69.09
2018-05-03T02:45:45.839Z,68.40
2018-05-03T02:48:14.171Z,68.54
2018-05-03T02:50:43.043Z,67.60
2018-05-03T02:53:11.778Z,68.34
2018-05-03T02:55:40.115Z,66.16
2018-05-03T02:58:26.575Z,67.29
2018-05-03T03:01:17.866Z,68.25
2018-05-03T03:04:09.413Z,66.36
2018-05-03T03:06:54.763Z,67.30
2018-05-03T03:09:47.762Z,65.49
2018-05-03T03:27:06.247Z,63.28
2018-05-03T03:29:52.058Z,63.74
2018-05-03T03:32:37.991Z,63.62
2018-05-03T03:38:49.141Z,63.34
2018-05-03T03:41:34.932Z,62.00
2018-05-03T03:44:20.923Z,62.24
2018-05-03T03:46:49.213Z,61.80
2018-05-03T03:49:17.490Z,61.30
2018-05-03T03:51:45.810Z,63.24
2018-05-03T03:54:14.095Z,62.19
2018-05-03T03:56:43.175Z,61.74
2018-05-03T03:59:11.984Z,61.87
2018-05-03T04:01:40.256Z,62.58
2018-05-03T04:04:08.554Z,61.98
2018-05-03T04:06:36.870Z,62.73
2018-05-03T04:09:05.150Z,62.93
2018-05-03T04:11:33.622Z,62.81
2018-05-03T04:14:01.985Z,62.66
2018-05-03T04:16:30.268Z,62.13
2018-05-03T04:19:16.008Z,62.41
2018-05-03T04:22:01.763Z,61.93
2018-05-03T04:38:11.157Z,61.78
2018-05-03T04:40:39.446Z,61.57
2018-05-03T04:43:07.751Z,61.66
2018-05-03T04:45:36.418Z,61.71
2018-05-03T04:48:05.022Z,61.09
2018-05-03T04:50:33.334Z,60.75
2018-05-03T04:53:01.619Z,60.46
2018-05-03T04:55:29.943Z,60.84
2018-05-03T04:57:58.235Z,60.81
2018-05-03T05:00:26.878Z,61.70
2018-05-03T05:02:55.207Z,61.66
2018-05-03T05:05:24.964Z,60.62
2018-05-03T05:07:53.498Z,60.61
2018-05-03T05:10:21.806Z,60.22
2018-05-03T05:12:50.666Z,58.94
2018-05-03T05:15:19.357Z,59.49
2018-05-03T05:17:47.799Z,59.47
2018-05-03T05:20:16.147Z,59.73
2018-05-03T05:22:44.614Z,60.09
2018-05-03T05:25:12.916Z,59.83
2018-05-03T05:27:42.002Z,59.97
2018-05-03T05:30:10.311Z,60.88
2018-05-03T05:32:38.610Z,59.13
2018-05-03T05:35:07.170Z,58.65
2018-05-03T05:37:35.458Z,57.53
2018-05-03T05:40:03.623Z,57.22
2018-05-03T05:42:31.711Z,55.89
2018-05-03T05:45:00.075Z,55.38
2018-05-03T05:47:28.504Z,55.10
2018-05-03T05:49:56.867Z,55.70
2018-05-03T05:52:25.142Z,55.67
2018-05-03T05:54:54.014Z,55.50
2018-05-03T05:57:23.047Z,56.54
2018-05-03T05:59:52.119Z,55.61
2018-05-03T06:02:20.598Z,56.24
2018-05-03T06:04:48.915Z,55.13
2018-05-03T06:07:17.676Z,56.18
2018-05-03T06:09:45.965Z,55.88
2018-05-03T06:12:14.610Z,55.41
2018-05-03T06:14:43.671Z,56.10
2018-05-03T06:17:12.842Z,55.98
2018-05-03T06:19:41.987Z,55.74
2018-05-03T06:22:10.963Z,56.45
2018-05-03T06:24:39.250Z,56.85
2018-05-03T06:27:07.639Z,57.40
2018-05-03T06:29:36.270Z,56.50
2018-05-03T06:32:04.858Z,57.19
2018-05-03T06:34:33.715Z,57.07
2018-05-03T06:37:02.000Z,56.77
2018-05-03T06:39:30.290Z,57.19
2018-05-03T06:41:58.799Z,57.05
2018-05-03T06:44:27.079Z,56.01
2018-05-03T06:46:56.186Z,56.12
2018-05-03T06:49:24.951Z,55.78
2018-05-03T06:51:54.219Z,56.40
2018-05-03T06:54:22.358Z,56.86
2018-05-03T06:56:50.612Z,57.04
2018-05-03T06:59:18.952Z,56.96
2018-05-03T07:01:47.306Z,56.66
2018-05-03T07:04:15.743Z,56.34
2018-05-03T07:06:43.838Z,57.41
2018-05-03T07:09:12.122Z,57.20
2018-05-03T07:11:41.139Z,57.57
2018-05-03T07:14:09.519Z,56.85
2018-05-03T07:16:37.932Z,56.01
2018-05-03T07:19:07.597Z,56.07
2018-05-03T07:21:36.167Z,55.49
2018-05-03T07:24:04.891Z,55.84
2018-05-03T07:26:33.342Z,56.65
2018-05-03T07:29:01.765Z,56.36
2018-05-03T07:31:30.450Z,55.26
2018-05-03T07:33:58.854Z,53.88
2018-05-03T07:36:27.173Z,53.80
2018-05-03T07:38:55.539Z,53.47
2018-05-03T07:41:24.178Z,52.54
2018-05-03T07:43:53.238Z,52.25
2018-05-03T07:46:23.062Z,51.30
2018-05-03T07:48:51.950Z,50.62
2018-05-03T07:51:21.042Z,49.16
2018-05-03T07:53:50.178Z,48.27
2018-05-03T07:56:19.173Z,49.06
2018-05-03T07:58:48.654Z,49.70
2018-05-03T08:01:19.310Z,49.77
2018-05-03T08:03:47.598Z,49.01
2018-05-03T08:06:16.530Z,48.10
2018-05-03T08:08:45.739Z,46.60
2018-05-03T08:11:14.851Z,45.59
2018-05-03T08:13:43.598Z,47.94
2018-05-03T08:16:13.067Z,45.76
2018-05-03T08:18:41.609Z,46.78
2018-05-03T08:21:09.936Z,45.56
2018-05-03T08:23:38.219Z,46.26
2018-05-03T08:26:07.692Z,46.99
2018-05-03T08:28:36.252Z,44.69
2018-05-03T08:31:04.962Z,44.69
2018-05-03T08:33:33.650Z,44.78
2018-05-03T08:36:02.276Z,42.94
2018-05-03T08:38:30.565Z,44.10
2018-05-03T08:40:58.846Z,46.00
2018-05-03T08:43:27.167Z,45.74
2018-05-03T08:45:55.465Z,44.56
2018-05-03T08:48:23.751Z,43.39
2018-05-03T08:50:52.418Z,43.43
2018-05-03T08:53:20.735Z,44.20
2018-05-03T08:55:49.056Z,43.48
2018-05-03T08:58:17.359Z,44.98
2018-05-03T09:00:46.298Z,44.59
2018-05-03T09:03:14.589Z,42.68
2018-05-03T09:05:42.898Z,42.97
2018-05-03T09:08:11.184Z,42.96
2018-05-03T09:10:40.277Z,45.56
2018-05-03T09:13:09.047Z,45.95
2018-05-03T09:15:38.463Z,45.02
2018-05-03T09:18:07.567Z,44.47
2018-05-03T09:20:35.858Z,44.32
2018-05-03T09:23:04.204Z,43.69
2018-05-03T09:25:32.350Z,42.55
2018-05-03T09:28:00.631Z,41.45
2018-05-03T09:30:28.910Z,41.09
2018-05-03T09:32:57.470Z,40.35
2018-05-03T09:35:26.035Z,41.47
2018-05-03T09:37:54.599Z,42.30
2018-05-03T09:40:23.553Z,42.81
2018-05-03T09:42:51.833Z,42.87
2018-05-03T09:45:20.143Z,40.02
2018-05-03T09:47:48.439Z,41.49
2018-05-03T09:50:16.775Z,43.77
2018-05-03T09:52:45.075Z,45.29
2018-05-03T09:55:13.359Z,44.73
2018-05-03T09:57:41.687Z,43.62
2018-05-03T10:00:09.966Z,41.46
2018-05-03T10:02:38.255Z,41.39
2018-05-03T10:05:06.587Z,42.92
2018-05-03T10:07:34.894Z,44.28
2018-05-03T10:10:03.178Z,42.66
2018-05-03T10:12:31.632Z,43.39
2018-05-03T10:14:59.911Z,43.69
2018-05-03T10:17:28.198Z,42.48
2018-05-03T10:19:56.507Z,41.27
2018-05-03T10:22:24.796Z,44.54
2018-05-03T10:24:53.302Z,44.62
2018-05-03T10:27:22.132Z,43.58
2018-05-03T10:29:50.580Z,42.59
2018-05-03T10:32:19.331Z,42.98
2018-05-03T10:34:47.623Z,42.77
2018-05-03T10:37:16.658Z,44.80
2018-05-03T10:39:45.031Z,44.88
2018-05-03T10:42:13.324Z,46.47
2018-05-03T10:44:41.784Z,46.26
2018-05-03T10:47:11.471Z,46.53
2018-05-03T10:49:39.750Z,46.57
2018-05-03T10:52:08.278Z,47.26
2018-05-03T10:54:37.291Z,46.50
2018-05-03T10:57:06.241Z,46.10
2018-05-03T10:59:34.693Z,46.33
2018-05-03T11:02:04.574Z,47.16
2018-05-03T11:04:32.866Z,45.54
2018-05-03T11:07:01.471Z,45.57
2018-05-03T11:09:30.599Z,47.52
2018-05-03T11:11:59.306Z,47.57
2018-05-03T11:14:27.772Z,47.18
2018-05-03T11:16:55.866Z,47.91
2018-05-03T11:19:24.160Z,47.69
2018-05-03T11:21:52.541Z,47.01
2018-05-03T11:24:20.826Z,46.43
2018-05-03T11:26:49.288Z,47.21
2018-05-03T11:29:18.221Z,46.25
2018-05-03T11:31:46.506Z,46.98
2018-05-03T11:34:15.161Z,48.51
2018-05-03T11:36:43.568Z,48.13
2018-05-03T11:39:13.598Z,49.11
2018-05-03T11:41:42.547Z,49.66
2018-05-03T11:44:11.199Z,49.57
2018-05-03T11:46:39.698Z,49.32
2018-05-03T11:49:08.101Z,48.82
2018-05-03T11:51:37.900Z,48.99
2018-05-03T11:54:06.291Z,48.92
2018-05-03T11:56:35.343Z,47.98
2018-05-03T11:59:03.681Z,48.17
2018-05-03T12:01:31.983Z,46.89
2018-05-03T12:04:00.784Z,47.90
2018-05-03T12:06:29.170Z,46.70
2018-05-03T12:08:57.975Z,45.83
2018-05-03T12:11:26.638Z,45.58
2018-05-03T12:13:54.921Z,44.30
2018-05-03T12:16:24.271Z,43.93
2018-05-03T12:18:53.330Z,42.75
2018-05-03T12:21:21.623Z,42.94
2018-05-03T12:23:49.967Z,41.24
2018-05-03T12:26:18.247Z,41.40
2018-05-03T12:28:46.715Z,40.17
2018-05-03T12:31:15.052Z,40.10
2018-05-03T12:33:43.557Z,41.60
2018-05-03T12:36:13.135Z,38.56
2018-05-03T12:38:41.318Z,37.00
2018-05-03T12:41:09.887Z,34.48
2018-05-03T12:43:39.025Z,36.71
2018-05-03T12:46:07.071Z,35.80
2018-05-03T12:48:35.362Z,36.39
2018-05-03T12:51:03.696Z,35.69
2018-05-03T12:53:31.980Z,34.11
2018-05-03T12:56:00.226Z,34.23
2018-05-03T12:58:28.479Z,38.39
2018-05-03T13:00:57.018Z,41.11
2018-05-03T13:03:25.064Z,41.24
2018-05-03T13:05:53.402Z,40.42
2018-05-03T13:08:22.219Z,39.56
2018-05-03T13:10:50.500Z,39.64
2018-05-03T13:13:19.316Z,39.14
2018-05-03T13:15:48.107Z,36.98
2018-05-03T13:18:16.397Z,38.95
2018-05-03T13:20:44.686Z,37.44
2018-05-03T13:23:13.407Z,40.15
2018-05-03T13:25:41.894Z,37.03
2018-05-03T13:28:10.183Z,39.60
2018-05-03T13:30:38.789Z,40.24
2018-05-03T13:33:07.087Z,40.07
2018-05-03T13:35:35.375Z,40.54
2018-05-03T13:38:04.242Z,39.29
2018-05-03T13:40:32.518Z,38.07
2018-05-03T13:43:00.852Z,36.19
2018-05-03T13:45:29.243Z,36.19
2018-05-03T13:47:57.628Z,36.87
2018-05-03T13:50:25.915Z,38.10
2018-05-03T13:52:54.300Z,39.55
2018-05-03T13:55:23.061Z,38.95
2018-05-03T13:57:51.488Z,37.02
2018-05-03T14:00:21.171Z,37.48
2018-05-03T14:02:49.754Z,37.67
2018-05-03T14:05:19.566Z,37.54
2018-05-03T14:07:48.327Z,38.75
2018-05-03T14:10:17.091Z,36.33
2018-05-03T14:12:46.030Z,34.55
2018-05-03T14:15:15.130Z,35.90
2018-05-03T14:17:45.576Z,35.47
2018-05-03T14:20:14.091Z,37.89
2018-05-03T14:22:42.288Z,38.77
2018-05-03T14:25:10.652Z,38.20
2018-05-03T14:27:39.783Z,34.59
2018-05-03T14:30:08.411Z,33.62
2018-05-03T14:32:38.715Z,33.58
2018-05-03T14:35:06.906Z,36.91
2018-05-03T14:37:36.042Z,39.37
2018-05-03T14:40:05.190Z,38.85
2018-05-03T14:42:33.501Z,37.39
2018-05-03T14:45:01.839Z,37.53
2018-05-03T14:47:30.186Z,39.59
2018-05-03T14:49:58.472Z,39.26
2018-05-03T14:52:26.751Z,39.20
2018-05-03T14:54:55.091Z,39.38
2018-05-03T14:57:23.375Z,39.14
2018-05-03T14:59:51.663Z,39.92
2018-05-03T15:02:20.023Z,39.60
2018-05-03T15:04:48.623Z,40.04
2018-05-03T15:07:16.968Z,40.85
2018-05-03T15:09:45.315Z,41.64
2018-05-03T15:12:13.595Z,40.90
2018-05-03T15:14:41.959Z,41.66
2018-05-03T15:17:10.137Z,40.54
2018-05-03T15:19:38.370Z,40.22
2018-05-03T15:22:06.663Z,40.53
2018-05-03T15:24:35.067Z,40.64
2018-05-03T15:27:03.395Z,42.03
2018-05-03T15:29:31.678Z,41.29
2018-05-03T15:31:59.964Z,40.96
2018-05-03T15:34:28.279Z,41.21
2018-05-03T15:36:56.567Z,41.17
2018-05-03T15:39:24.842Z,42.12
2018-05-03T15:41:53.187Z,42.55
2018-05-03T15:44:21.603Z,42.05
2018-05-03T15:46:51.074Z,40.25
2018-05-03T15:49:19.190Z,41.22
2018-05-03T15:51:47.486Z,40.33
2018-05-03T15:54:15.787Z,40.78
2018-05-03T15:56:44.125Z,41.42
2018-05-03T15:59:12.799Z,41.96
2018-05-03T16:01:41.118Z,42.24
2018-05-03T16:04:09.434Z,43.32
2018-05-03T16:06:38.227Z,43.02
2018-05-03T16:09:07.316Z,41.83
2018-05-03T16:11:35.982Z,42.39
2018-05-03T16:14:04.747Z,42.16
2018-05-03T16:16:33.031Z,41.93
2018-05-03T16:19:01.321Z,42.10
2018-05-03T16:21:29.636Z,42.02
2018-05-03T16:23:57.915Z,42.12
2018-05-03T16:26:26.207Z,42.50
2018-05-03T16:28:54.510Z,42.88
2018-05-03T16:31:22.798Z,43.46
2018-05-03T16:33:51.086Z,44.04
2018-05-03T16:36:19.426Z,43.93
2018-05-03T16:38:48.152Z,44.32
2018-05-03T16:41:16.439Z,44.68
2018-05-03T16:43:44.782Z,45.04
2018-05-03T16:46:13.079Z,45.07
2018-05-03T16:48:41.660Z,45.14
2018-05-03T16:51:09.991Z,45.57
2018-05-03T16:53:38.275Z,46.04
2018-05-03T16:56:07.043Z,45.59
2018-05-03T16:58:35.366Z,45.58
2018-05-03T17:01:04.627Z,46.00
2018-05-03T17:03:32.911Z,45.83
2018-05-03T17:06:01.250Z,46.27
2018-05-03T17:08:29.528Z,45.75
2018-05-03T17:10:58.502Z,46.18
2018-05-03T17:13:27.322Z,46.35
2018-05-03T17:15:56.532Z,46.71
2018-05-03T17:18:24.859Z,46.93
2018-05-03T17:20:53.142Z,46.76
2018-05-03T17:23:21.439Z,46.70
2018-05-03T17:25:49.830Z,47.12
2018-05-03T17:28:18.136Z,47.29
2018-05-03T17:30:46.444Z,47.27
2018-05-03T17:33:14.770Z,47.44
2018-05-03T17:35:43.689Z,47.46
2018-05-03T17:38:11.978Z,47.36
2018-05-03T17:40:41.030Z,47.42
2018-05-03T17:43:09.341Z,48.13
2018-05-03T17:45:38.255Z,47.33
2018-05-03T17:48:06.607Z,47.71
2018-05-03T17:50:34.937Z,47.67
2018-05-03T17:53:03.607Z,48.12
2018-05-03T17:55:31.905Z,48.35
2018-05-03T17:58:00.187Z,48.17
2018-05-03T18:00:28.498Z,48.26
2018-05-03T18:02:56.779Z,48.63
2018-05-03T18:05:25.059Z,48.81
2018-05-03T18:07:54.132Z,49.21
2018-05-03T18:10:22.415Z,49.05
2018-05-03T18:12:50.734Z,49.18
2018-05-03T18:15:20.389Z,49.27
2018-05-03T18:17:48.730Z,49.35
2018-05-03T18:20:17.014Z,49.46
2018-05-03T18:22:45.291Z,49.50
2018-05-03T18:25:13.674Z,49.82
2018-05-03T18:27:42.475Z,49.93
2018-05-03T18:30:10.703Z,50.22
2018-05-03T18:32:39.156Z,50.26
2018-05-03T18:35:07.847Z,50.75
2018-05-03T18:37:37.922Z,50.21
2018-05-03T18:40:06.258Z,50.73
2018-05-03T18:42:35.586Z,50.43
2018-05-03T18:45:04.527Z,50.65
2018-05-03T18:47:33.295Z,50.66
2018-05-03T18:50:01.983Z,50.54
2018-05-03T18:52:30.263Z,51.04
2018-05-03T18:54:58.567Z,51.46
2018-05-03T18:57:27.581Z,51.38
2018-05-03T18:59:56.086Z,50.94
2018-05-03T19:02:24.376Z,50.91
2018-05-03T19:04:53.033Z,50.99
2018-05-03T19:07:21.475Z,50.67
2018-05-03T19:09:50.614Z,50.94
2018-05-03T19:12:18.911Z,50.93
2018-05-03T19:14:47.187Z,50.98
2018-05-03T19:17:15.970Z,51.23
2018-05-03T19:19:44.383Z,51.17
2018-05-03T19:22:12.703Z,51.00
2018-05-03T19:24:42.111Z,51.00
2018-05-03T19:27:10.610Z,51.16
2018-05-03T19:29:39.229Z,51.05
2018-05-03T19:32:07.519Z,51.15
2018-05-03T19:34:35.943Z,51.13
2018-05-03T19:37:04.522Z,51.32
2018-05-03T19:39:32.810Z,51.44
2018-05-03T19:42:01.841Z,51.41
2018-05-03T19:44:31.248Z,51.45
2018-05-03T19:46:59.615Z,51.66
2018-05-03T19:49:27.927Z,51.74
2018-05-03T19:51:57.007Z,51.92
2018-05-03T19:54:25.520Z,52.10
2018-05-03T19:56:54.310Z,51.90
2018-05-03T19:59:23.434Z,52.29
2018-05-03T20:01:51.712Z,52.38
2018-05-03T20:04:20.211Z,52.48
2018-05-03T20:06:48.507Z,52.62
2018-05-03T20:09:16.827Z,52.70
2018-05-03T20:11:45.753Z,53.00
2018-05-03T20:14:14.058Z,52.97
2018-05-03T20:16:43.104Z,53.02
2018-05-03T20:19:11.453Z,53.20
2018-05-03T20:21:40.512Z,53.78
2018-05-03T20:24:09.038Z,53.61
2018-05-03T20:26:38.126Z,53.53
2018-05-03T20:29:07.184Z,53.91
2018-05-03T20:31:35.471Z,53.80
2018-05-03T20:34:04.178Z,54.04
2018-05-03T20:36:32.466Z,54.23
2018-05-03T20:39:00.840Z,54.19
2018-05-03T20:41:29.306Z,54.28
2018-05-03T20:43:59.488Z,54.47
2018-05-03T20:46:28.516Z,54.55
2018-05-03T20:48:56.959Z,54.82
2018-05-03T20:51:26.444Z,54.76
2018-05-03T20:53:55.140Z,55.03
2018-05-03T20:56:23.891Z,54.80
2018-05-03T20:58:52.235Z,55.04
2018-05-03T21:01:21.082Z,55.18
2018-05-03T21:03:49.650Z,55.39
2018-05-03T21:06:18.628Z,55.60
2018-05-03T21:08:48.639Z,55.89
2018-05-03T21:11:17.871Z,55.86
2018-05-03T21:13:46.599Z,55.78
2018-05-03T21:16:16.020Z,55.99
2018-05-03T21:18:44.691Z,55.79
2018-05-03T21:21:12.966Z,56.00
2018-05-03T21:23:41.279Z,56.25
2018-05-03T21:26:12.079Z,56.09
2018-05-03T21:28:40.502Z,56.37
2018-05-03T21:31:09.063Z,56.39
2018-05-03T21:33:37.925Z,56.42
2018-05-03T21:36:06.205Z,56.62
2018-05-03T21:38:34.478Z,56.52
2018-05-03T21:41:02.898Z,56.50
2018-05-03T21:43:31.180Z,56.69
2018-05-03T21:45:59.463Z,56.57
2018-05-03T21:48:27.855Z,56.49
2018-05-03T21:50:55.948Z,56.69
2018-05-03T21:53:24.235Z,56.58
2018-05-03T21:55:53.205Z,56.67
2018-05-03T21:58:21.488Z,57.18
2018-05-03T22:00:49.918Z,56.85
2018-05-03T22:03:18.323Z,57.17
2018-05-03T22:05:47.290Z,57.25
2018-05-03T22:08:15.934Z,57.08
2018-05-03T22:10:44.259Z,57.44
2018-05-03T22:13:12.930Z,57.54
2018-05-03T22:15:41.794Z,57.50
2018-05-03T22:18:10.133Z,57.78
2018-05-03T22:20:38.426Z,57.50
2018-05-03T22:23:06.715Z,57.56
2018-05-03T22:25:35.406Z,57.50
2018-05-03T22:28:04.238Z,57.69
2018-05-03T22:30:32.517Z,57.53
2018-05-03T22:33:01.066Z,57.58
2018-05-03T22:35:29.339Z,57.93
2018-05-03T22:37:57.987Z,57.65
2018-05-03T22:40:26.278Z,58.00
2018-05-03T22:42:54.562Z,57.91
2018-05-03T22:45:23.103Z,57.87
2018-05-03T22:47:51.379Z,57.93
2018-05-03T22:50:19.762Z,57.61
2018-05-03T22:52:48.078Z,57.89
2018-05-03T22:55:17.010Z,57.80
2018-05-03T22:57:45.298Z,57.60
2018-05-03T23:00:13.602Z,57.57
2018-05-03T23:02:41.874Z,57.69
2018-05-03T23:05:11.033Z,58.12
2018-05-03T23:07:39.690Z,57.96
2018-05-03T23:10:07.975Z,58.11
2018-05-03T23:12:36.308Z,58.15
2018-05-03T23:15:04.598Z,58.11
2018-05-03T23:17:33.271Z,59.09
2018-05-03T23:20:01.673Z,58.21
2018-05-03T23:22:33.939Z,58.30
2018-05-03T23:25:02.282Z,58.37
2018-05-03T23:27:30.593Z,58.72
2018-05-03T23:30:00.194Z,58.87
2018-05-03T23:32:28.687Z,58.98
2018-05-03T23:34:57.083Z,59.10
2018-05-03T23:37:25.379Z,58.93
2018-05-03T23:39:53.902Z,58.82
2018-05-03T23:42:22.366Z,58.72
2018-05-03T23:44:50.740Z,59.00
2018-05-03T23:47:19.064Z,59.15
2018-05-03T23:49:47.838Z,59.50
2018-05-03T23:52:16.379Z,59.34
2018-05-03T23:54:44.719Z,59.58
2018-05-03T23:57:13.008Z,59.62
2018-05-03T23:59:41.582Z,59.32
